Time;durP1;ratioP1;P1;durP2;ratioP2;P2;SDS_P1;SDS_P2;PMS_P1;PMS_P2;Temp;Humidity;BMP_temperature;BMP_pressure;BME280_temperature;BME280_humidity;BME280_pressure;Samples;Min_cycle;Max_cycle;Signal;HPM_P1;HPM_P2
2022/12/14 00:00:26;;;;;;;6.70;4.45;;;;;;;0.50;69.45;93068.34;5091728;28;20027;-35
2022/12/14 00:02:52;;;;;;;9.07;5.20;;;;;;;0.50;70.02;93060.19;5091762;28;20462;-35
2022/12/14 00:05:18;;;;;;;8.65;5.38;;;;;;;0.38;71.62;93069.59;5091707;28;20027;-35
2022/12/14 00:07:44;;;;;;;7.40;4.95;;;;;;;0.43;71.80;93072.31;5071708;28;20024;-35
2022/12/14 00:10:10;;;;;;;5.55;4.55;;;;;;;0.54;70.10;93075.03;5071323;28;20117;-35
2022/12/14 00:12:36;;;;;;;8.88;3.83;;;;;;;0.53;69.43;93070.09;5071436;28;20032;-35
2022/12/14 00:15:02;;;;;;;7.53;4.90;;;;;;;0.43;70.51;93079.72;5071141;28;20026;-35
2022/12/14 00:17:27;;;;;;;6.53;4.35;;;;;;;0.48;70.01;93074.28;5071268;28;20016;-35
2022/12/14 00:19:53;;;;;;;7.35;5.22;;;;;;;0.45;70.13;93085.41;5071521;28;20036;-35
2022/12/14 00:22:19;;;;;;;7.93;4.13;;;;;;;0.28;70.17;93088.06;5071443;28;20023;-35
2022/12/14 00:24:44;;;;;;;7.72;5.65;;;;;;;0.23;70.36;93083.41;5070847;28;20052;-35
2022/12/14 00:27:10;;;;;;;5.57;4.05;;;;;;;0.35;70.72;93090.31;5091236;28;20035;-36
2022/12/14 00:29:35;;;;;;;5.70;4.15;;;;;;;0.36;69.62;93097.25;5086713;28;20027;-35
2022/12/14 00:32:00;;;;;;;7.45;4.50;;;;;;;0.36;69.67;93096.50;5070924;28;20032;-35
2022/12/14 00:34:26;;;;;;;5.60;3.95;;;;;;;0.36;69.37;93101.94;5070864;28;20032;-35
2022/12/14 00:36:51;;;;;;;7.97;4.13;;;;;;;0.30;70.67;93099.22;5071156;28;20029;-35
2022/12/14 00:39:17;;;;;;;6.50;4.18;;;;;;;0.35;69.96;93103.91;5082542;28;20028;-35
2022/12/14 00:41:42;;;;;;;7.22;5.22;;;;;;;0.37;70.47;93093.28;5083017;28;20472;-36
2022/12/14 00:44:08;;;;;;;9.50;5.15;;;;;;;0.37;71.69;93098.00;5052912;28;20036;-35
2022/12/14 00:46:33;;;;;;;7.88;4.70;;;;;;;0.23;71.51;93091.53;5071017;28;20024;-35
2022/12/14 00:48:59;;;;;;;11.70;5.28;;;;;;;0.30;70.69;93088.34;5070644;28;20021;-35
2022/12/14 00:51:24;;;;;;;7.60;5.05;;;;;;;0.22;71.76;93092.03;5070634;28;20027;-35
2022/12/14 00:53:49;;;;;;;8.13;5.20;;;;;;;0.16;72.93;93088.56;5053008;28;20020;-35
2022/12/14 00:56:15;;;;;;;8.00;5.20;;;;;;;0.13;74.19;93089.56;5070742;28;20036;-35
2022/12/14 00:58:40;;;;;;;8.77;5.50;;;;;;;0.10;74.30;93093.22;5070563;28;20020;-35
2022/12/14 01:01:11;;;;;;;7.70;5.57;;;;;;;0.16;74.89;93086.59;5070807;28;20020;-35
2022/12/14 01:03:36;;;;;;;9.13;6.63;;;;;;;0.22;74.04;93078.47;5070705;28;20408;-35
2022/12/14 01:06:02;;;;;;;8.32;5.40;;;;;;;0.34;73.43;93078.00;5070673;28;20024;-35
2022/12/14 01:08:34;;;;;;;8.35;5.38;;;;;;;0.34;73.04;93088.09;5070406;28;20065;-35
2022/12/14 01:11:05;;;;;;;10.35;4.95;;;;;;;0.30;74.73;93079.47;5070132;28;20032;-35
2022/12/14 01:13:30;;;;;;;7.20;5.70;;;;;;;0.35;73.36;93081.41;5070615;28;20028;-35
2022/12/14 01:16:11;;;;;;;9.95;6.07;;;;;;;0.19;74.30;93063.16;5070145;28;20493;-35
2022/12/14 01:18:37;;;;;;;11.07;5.82;;;;;;;0.39;74.01;93088.09;5070667;28;20071;-35
2022/12/14 01:21:15;;;;;;;9.40;6.32;;;;;;;0.42;73.78;93091.81;5070143;28;20515;-35
2022/12/14 01:23:41;;;;;;;10.45;6.00;;;;;;;0.33;75.06;93079.22;5070204;28;20085;-36
2022/12/14 01:26:06;;;;;;;8.98;5.50;;;;;;;0.32;74.34;93088.59;5081777;28;20036;-35
2022/12/14 01:28:33;;;;;;;7.32;5.05;;;;;;;0.24;74.34;93076.00;5090608;28;20480;-35
2022/12/14 01:31:04;;;;;;;8.63;5.15;;;;;;;0.22;74.68;93081.19;5074334;28;20028;-35
2022/12/14 01:33:29;;;;;;;11.65;6.07;;;;;;;0.30;75.00;93082.19;5070320;28;20087;-35
2022/12/14 01:35:55;;;;;;;9.05;6.93;;;;;;;0.33;75.35;93084.63;5084711;28;20032;-35
2022/12/14 01:38:20;;;;;;;11.48;6.85;;;;;;;0.33;75.26;93086.59;5090263;28;20488;-35
2022/12/14 01:40:46;;;;;;;9.98;6.30;;;;;;;0.25;75.75;93085.63;5090309;28;20024;-35
2022/12/14 01:43:14;;;;;;;7.18;4.47;;;;;;;0.19;74.92;93084.88;5069985;28;20029;-35
2022/12/14 01:45:42;;;;;;;8.48;5.68;;;;;;;0.11;75.98;93079.16;5069970;28;20470;-35
2022/12/14 01:48:12;;;;;;;6.57;4.68;;;;;;;0.15;75.81;93081.66;5052504;28;20036;-35
2022/12/14 01:50:41;;;;;;;7.18;5.20;;;;;;;-0.11;75.27;93077.13;5070039;28;20488;-35
2022/12/14 01:53:11;;;;;;;8.43;5.35;;;;;;;-0.17;77.07;93064.78;5069879;28;20029;-35
2022/12/14 01:55:44;;;;;;;7.10;5.05;;;;;;;-0.03;76.48;93064.59;5052277;28;20056;-35
2022/12/14 01:58:13;;;;;;;9.63;4.88;;;;;;;-0.07;76.59;93066.06;5052222;28;20048;-36
2022/12/14 02:00:39;;;;;;;9.82;5.25;;;;;;;-0.02;76.38;93055.22;5052052;28;20024;-35
2022/12/14 02:03:08;;;;;;;8.38;5.50;;;;;;;0.08;75.65;93055.00;5069783;28;20027;-35
2022/12/14 02:05:36;;;;;;;6.28;4.60;;;;;;;0.10;75.23;93053.28;5053900;28;20503;-35
2022/12/14 02:08:03;;;;;;;9.37;5.10;;;;;;;0.08;75.42;93047.59;5089997;28;20110;-35
2022/12/14 02:10:29;;;;;;;10.82;7.00;;;;;;;0.19;75.04;93038.72;5072096;28;20569;-35
2022/12/14 02:13:22;;;;;;;10.02;6.28;;;;;;;0.11;75.37;93035.75;5072273;28;20538;-35
2022/12/14 02:15:48;;;;;;;11.40;6.88;;;;;;;0.09;75.31;93030.06;5090205;28;20032;-35
2022/12/14 02:18:20;;;;;;;6.68;3.63;;;;;;;-0.01;75.78;93028.81;5071883;28;20035;-35
2022/12/14 02:21:08;;;;;;;6.68;4.45;;;;;;;-0.09;75.21;93025.84;5089982;28;20038;-35
2022/12/14 02:23:54;;;;;;;7.60;5.78;;;;;;;-0.11;76.33;93027.56;5091440;28;20035;-35
2022/12/14 02:26:44;;;;;;;9.70;4.63;;;;;;;-0.12;77.22;93040.41;5093735;28;20454;-35
2022/12/14 02:29:21;;;;;;;6.90;5.05;;;;;;;-0.07;77.27;93042.38;5092978;28;20180;-35
2022/12/14 02:31:56;;;;;;;8.02;5.07;;;;;;;-0.07;77.49;93025.38;5084997;28;20043;-35
2022/12/14 02:34:29;;;;;;;7.45;5.18;;;;;;;0.05;75.10;93013.28;5093759;28;20097;-35
2022/12/14 02:37:02;;;;;;;9.45;5.72;;;;;;;0.00;75.38;93020.19;5093812;28;20450;-35
2022/12/14 02:40:02;;;;;;;7.00;4.45;;;;;;;-0.15;75.90;93019.66;5075343;28;20035;-35
2022/12/14 02:42:55;;;;;;;8.57;4.43;;;;;;;-0.24;75.39;93022.59;5078882;28;20041;-35
2022/12/14 02:45:27;;;;;;;6.88;4.57;;;;;;;-0.25;75.15;93023.84;5055482;28;20440;-35
2022/12/14 02:47:57;;;;;;;10.68;5.05;;;;;;;-0.34;75.29;93009.75;5073341;28;20035;-35
2022/12/14 02:50:26;;;;;;;6.72;4.05;;;;;;;-0.33;75.13;93009.28;5073217;28;20060;-35
2022/12/14 02:53:03;;;;;;;8.98;4.82;;;;;;;-0.37;75.44;92991.75;5073161;28;20025;-35
2022/12/14 02:55:36;;;;;;;10.38;4.78;;;;;;;-0.44;75.67;92986.81;5072868;28;20027;-35
2022/12/14 02:58:09;;;;;;;7.43;5.53;;;;;;;-0.42;76.42;92987.06;5055027;28;20097;-35
2022/12/14 03:00:36;;;;;;;7.57;4.85;;;;;;;-0.45;75.88;92990.72;5055008;28;20031;-35
2022/12/14 03:03:04;;;;;;;7.40;4.78;;;;;;;-0.48;75.84;92991.72;5054901;28;20027;-35
2022/12/14 03:05:29;;;;;;;9.75;5.93;;;;;;;-0.55;76.72;93009.22;5056249;28;20024;-35
2022/12/14 03:07:57;;;;;;;7.82;5.43;;;;;;;-0.52;77.54;93010.91;5093176;28;20032;-35
2022/12/14 03:10:33;;;;;;;8.23;5.50;;;;;;;-0.50;76.83;92999.59;5092750;28;20020;-35
2022/12/14 03:13:11;;;;;;;7.13;5.07;;;;;;;-0.50;76.84;93008.50;5075100;28;20036;-35
2022/12/14 03:15:39;;;;;;;6.75;4.97;;;;;;;-0.52;77.02;93010.91;5092658;28;20034;-35
2022/12/14 03:18:06;;;;;;;7.30;5.15;;;;;;;-0.44;76.27;93014.66;5074708;28;20054;-35
2022/12/14 03:20:33;;;;;;;7.25;5.28;;;;;;;-0.45;76.41;93024.03;5092654;28;20031;-35
2022/12/14 03:23:00;;;;;;;6.72;5.15;;;;;;;-0.51;75.53;93022.53;5074538;28;20039;-35
2022/12/14 03:25:31;;;;;;;8.05;5.85;;;;;;;-0.48;76.50;93008.75;5074119;28;20488;-35
2022/12/14 03:28:25;;;;;;;8.75;5.43;;;;;;;-0.50;76.01;93027.47;5063676;28;20496;-35
2022/12/14 03:31:02;;;;;;;9.82;5.13;;;;;;;-0.58;76.19;93018.31;5077254;28;20104;-35
2022/12/14 03:33:30;;;;;;;6.82;5.20;;;;;;;-0.59;76.31;93013.38;5074133;28;20027;-35
2022/12/14 03:36:20;;;;;;;7.47;5.43;;;;;;;-0.62;76.93;93014.34;5074437;28;20461;-35
2022/12/14 03:38:50;;;;;;;9.23;4.28;;;;;;;-0.66;76.17;93003.00;5074367;28;20051;-35
2022/12/14 03:41:26;;;;;;;9.18;5.80;;;;;;;-0.74;77.18;93000.03;5092430;28;20028;-35
2022/12/14 03:44:01;;;;;;;9.45;5.53;;;;;;;-0.72;76.95;93008.41;5092483;28;20108;-35
2022/12/14 03:46:51;;;;;;;8.20;5.43;;;;;;;-0.74;77.42;92994.59;5074150;28;20031;-35
2022/12/14 03:51:40;;;;;;;7.28;4.57;;;;;;;-0.91;77.60;92996.50;5067529;27;20603;-34
2022/12/14 03:54:11;;;;;;;11.40;5.93;;;;;;;-0.94;77.88;92992.78;5067541;28;20127;-34
2022/12/14 03:56:49;;;;;;;10.15;6.70;;;;;;;-0.95;77.75;93007.56;5067844;28;20108;-34
2022/12/14 03:59:26;;;;;;;12.47;6.10;;;;;;;-1.10;78.10;92992.69;5067853;28;20027;-34
2022/12/14 04:02:06;;;;;;;8.82;6.32;;;;;;;-1.05;79.00;93014.41;5066311;28;20024;-34
2022/12/14 04:04:45;;;;;;;7.32;4.35;;;;;;;-0.92;77.53;93011.25;5066191;28;20028;-34
2022/12/14 04:07:16;;;;;;;8.38;5.28;;;;;;;-1.08;79.36;93023.50;5083094;28;20020;-34
2022/12/14 04:09:50;;;;;;;10.75;6.38;;;;;;;-1.04;79.48;93017.88;5086435;28;20147;-34
2022/12/14 04:21:38;;;;;;;11.23;7.07;;;;;;;-0.79;79.47;93030.53;5086279;28;20023;-34
2022/12/14 04:27:03;;;;;;;9.10;5.10;;;;;;;-0.77;77.08;93015.28;5065966;28;20105;-34
2022/12/14 04:32:26;;;;;;;8.20;6.18;;;;;;;-0.76;78.83;93024.88;5067144;28;20109;-34
2022/12/14 04:34:58;;;;;;;10.30;6.68;;;;;;;-0.67;78.80;93015.06;5066714;28;20104;-34
2022/12/14 04:37:25;;;;;;;9.57;6.15;;;;;;;-0.62;78.31;93022.47;5066719;28;20029;-34
2022/12/14 04:39:57;;;;;;;9.27;6.15;;;;;;;-0.44;77.38;93025.50;5065396;28;20100;-34
2022/12/14 04:42:27;;;;;;;14.05;6.57;;;;;;;-0.53;77.96;93023.00;5066875;28;20020;-34
2022/12/14 04:44:58;;;;;;;15.30;6.85;;;;;;;-0.64;78.17;93006.69;5066802;28;20048;-34
2022/12/14 04:47:29;;;;;;;10.57;6.43;;;;;;;-0.48;77.36;93025.00;5065303;28;20060;-34
2022/12/14 04:50:07;;;;;;;9.10;5.78;;;;;;;-0.47;77.15;93025.72;5065166;28;20040;-34
2022/12/14 04:53:09;;;;;;;8.52;5.05;;;;;;;-0.62;77.30;93020.50;5065460;28;20016;-34
2022/12/14 04:55:51;;;;;;;7.93;5.43;;;;;;;-0.81;77.07;92984.22;5043918;28;20456;-36
2022/12/14 04:58:28;;;;;;;8.38;5.47;;;;;;;-0.83;77.77;93016.50;5066176;28;20159;-36
2022/12/14 05:01:12;;;;;;;7.43;5.00;;;;;;;-0.66;77.85;93027.38;5063601;28;20013;-36
2022/12/14 05:03:47;;;;;;;11.77;6.63;;;;;;;-0.80;78.18;93021.66;5052923;28;20538;-34
2022/12/14 05:06:34;;;;;;;5.85;4.55;;;;;;;-0.81;77.80;93033.75;5052883;28;20021;-36
2022/12/14 05:09:09;;;;;;;7.55;5.18;;;;;;;-0.94;78.04;93046.22;5053050;28;20037;-36
2022/12/14 05:11:44;;;;;;;12.13;5.65;;;;;;;-0.96;78.66;93048.69;5052696;28;20029;-36
2022/12/14 05:14:16;;;;;;;8.95;5.93;;;;;;;-0.96;78.57;93030.47;5051906;28;20033;-36
2022/12/14 05:16:42;;;;;;;8.32;5.63;;;;;;;-0.97;78.89;93050.66;5051570;28;20036;-36
2022/12/14 05:19:08;;;;;;;6.78;4.28;;;;;;;-0.93;78.00;93045.00;5052933;28;20028;-36
2022/12/14 05:21:46;;;;;;;8.43;5.47;;;;;;;-0.91;78.58;93050.69;5052436;28;20064;-36
2022/12/14 05:24:12;;;;;;;9.68;5.90;;;;;;;-0.93;78.48;93051.16;5052502;28;20033;-36
2022/12/14 05:26:37;;;;;;;11.70;6.30;;;;;;;-0.82;77.93;93064.78;5052284;28;20029;-36
2022/12/14 05:29:03;;;;;;;8.13;5.10;;;;;;;-0.69;76.52;93063.63;5052409;28;20029;-36
2022/12/14 05:31:28;;;;;;;6.95;4.85;;;;;;;-0.79;77.12;93050.25;5032450;28;20029;-36
2022/12/14 05:33:54;;;;;;;15.02;5.30;;;;;;;-0.80;77.40;93048.75;5031331;28;20025;-36
2022/12/14 05:36:19;;;;;;;7.30;5.65;;;;;;;-0.76;77.78;93048.56;5032480;28;20037;-35
2022/12/14 05:38:45;;;;;;;12.30;5.85;;;;;;;-0.73;77.73;93044.84;5032318;28;20029;-36
2022/12/14 05:41:11;;;;;;;8.05;5.32;;;;;;;-0.63;77.92;93051.56;5035933;28;20024;-36
2022/12/14 05:43:36;;;;;;;9.70;5.75;;;;;;;-0.59;78.15;93049.38;5052457;28;20029;-35
2022/12/14 05:46:03;;;;;;;10.63;5.43;;;;;;;-0.63;77.52;93048.88;5050891;28;20496;-35
2022/12/14 05:48:29;;;;;;;7.38;5.55;;;;;;;-0.61;77.69;93053.78;5052399;28;20127;-36
2022/12/14 05:50:54;;;;;;;12.23;5.57;;;;;;;-0.69;77.53;93050.06;5051905;28;20049;-36
2022/12/14 05:53:20;;;;;;;8.32;4.95;;;;;;;-0.60;77.40;93058.72;5052064;28;20085;-36
2022/12/14 05:55:50;;;;;;;8.30;5.32;;;;;;;-0.60;77.84;93066.84;5051956;28;20057;-36
2022/12/14 05:58:15;;;;;;;16.58;8.55;;;;;;;-0.51;77.63;93063.19;5051917;28;20519;-36
2022/12/14 06:00:41;;;;;;;12.82;8.50;;;;;;;-0.58;78.07;93061.69;5051943;28;20029;-35
2022/12/14 06:03:06;;;;;;;6.25;4.95;;;;;;;-0.80;76.42;93050.72;5052088;28;20024;-36
2022/12/14 06:05:32;;;;;;;11.70;5.35;;;;;;;-0.79;77.29;93068.50;5051943;28;20578;-36
2022/12/14 06:07:57;;;;;;;8.70;5.18;;;;;;;-0.90;78.01;93079.25;5052085;28;20516;-36
2022/12/14 06:10:23;;;;;;;6.35;4.80;;;;;;;-0.92;77.72;93084.44;5051851;28;20035;-35
2022/12/14 06:12:48;;;;;;;7.43;4.47;;;;;;;-0.97;77.85;93077.00;5051055;28;20493;-36
2022/12/14 06:15:14;;;;;;;7.53;5.75;;;;;;;-0.91;78.73;93080.50;5051276;28;20044;-36
2022/12/14 06:17:45;;;;;;;5.47;4.93;;;;;;;-0.89;78.20;93089.59;5051515;28;20028;-36
2022/12/14 06:20:12;;;;;;;9.60;6.43;;;;;;;-0.76;78.10;93081.81;5051350;28;20025;-36
2022/12/14 06:22:39;;;;;;;8.45;5.10;;;;;;;-0.81;77.65;93084.50;5051535;28;20420;-34
2022/12/14 06:25:05;;;;;;;7.25;4.28;;;;;;;-0.68;77.74;93079.38;5051411;28;20087;-36
2022/12/14 06:27:30;;;;;;;6.97;4.50;;;;;;;-0.94;77.94;93078.75;5051647;28;20028;-35
2022/12/14 06:29:56;;;;;;;4.93;4.05;;;;;;;-0.91;79.30;93075.09;5058829;28;20029;-36
2022/12/14 06:32:22;;;;;;;7.65;5.22;;;;;;;-0.95;79.94;93079.97;5071495;28;20109;-35
2022/12/14 06:37:09;;;;;;;9.77;4.78;;;;;;;-1.02;78.91;93070.31;5087784;27;20997;-34
2022/12/14 06:39:35;;;;;;;4.82;4.32;;;;;;;-0.96;78.38;93076.53;5087569;28;20032;-34
2022/12/14 06:42:00;;;;;;;9.63;6.40;;;;;;;-0.97;79.15;93077.00;5087914;28;20032;-35
2022/12/14 06:44:26;;;;;;;8.88;6.45;;;;;;;-0.91;79.56;93078.50;5087883;28;20020;-35
2022/12/14 06:46:51;;;;;;;10.27;6.10;;;;;;;-0.84;80.24;93080.03;5087874;28;20431;-34
2022/12/14 06:49:16;;;;;;;8.85;5.85;;;;;;;-0.78;79.50;93073.41;5087553;28;20020;-34
2022/12/14 06:51:43;;;;;;;8.10;5.40;;;;;;;-0.78;79.51;93068.00;5087327;28;20640;-35
2022/12/14 06:54:10;;;;;;;6.28;4.90;;;;;;;-0.73;79.31;93069.25;5087472;28;20028;-34
2022/12/14 06:56:37;;;;;;;10.13;4.80;;;;;;;-0.59;78.98;93071.06;5087386;28;20158;-34
2022/12/14 06:59:04;;;;;;;5.63;4.55;;;;;;;-0.53;78.40;93088.09;5087294;28;20028;-34
2022/12/14 07:01:29;;;;;;;9.30;6.07;;;;;;;-0.49;78.53;93069.63;5087565;28;20032;-34
2022/12/14 07:03:56;;;;;;;14.88;7.35;;;;;;;-0.32;78.94;93091.38;5087456;28;20386;-35
2022/12/14 07:06:23;;;;;;;13.13;7.90;;;;;;;-0.33;79.07;93096.06;5087675;28;20021;-35
2022/12/14 07:08:52;;;;;;;16.20;7.35;;;;;;;-0.18;78.50;93104.00;5087601;28;20035;-34
2022/12/14 07:11:17;;;;;;;26.45;13.45;;;;;;;-0.25;78.22;93107.94;5087324;28;20438;-34
2022/12/14 07:13:43;;;;;;;7.63;5.95;;;;;;;-0.43;78.88;93124.59;5087006;28;20066;-35
2022/12/14 07:16:15;;;;;;;20.67;12.57;;;;;;;-0.53;79.49;93131.47;5086838;28;20012;-35
2022/12/14 07:18:41;;;;;;;6.75;5.07;;;;;;;-0.58;80.05;93126.00;5085865;28;20028;-35
2022/12/14 07:21:11;;;;;;;9.77;6.63;;;;;;;-0.74;79.82;93107.69;5087211;28;20035;-35
2022/12/14 07:23:37;;;;;;;6.30;5.07;;;;;;;-0.66;79.53;93111.44;5087139;28;20035;-35
2022/12/14 07:26:17;;;;;;;8.13;5.55;;;;;;;-0.66;79.95;93106.75;5086480;28;20522;-34
2022/12/14 07:28:43;;;;;;;9.18;5.60;;;;;;;-0.60;80.06;93099.38;5086786;28;20027;-35
2022/12/14 07:31:12;;;;;;;7.88;5.30;;;;;;;-0.61;79.98;93073.50;5087003;28;20077;-35
2022/12/14 07:33:38;;;;;;;9.18;5.82;;;;;;;-0.48;80.08;93079.25;5086969;28;20435;-35
2022/12/14 07:36:06;;;;;;;8.82;6.28;;;;;;;-0.36;79.86;93075.34;5086526;28;20072;-35
2022/12/14 07:38:32;;;;;;;8.02;5.72;;;;;;;-0.51;78.35;93074.78;5086593;28;20473;-35
2022/12/14 07:41:06;;;;;;;12.52;5.78;;;;;;;-0.55;79.02;93074.28;5086532;28;20081;-35
2022/12/14 07:43:31;;;;;;;10.65;5.85;;;;;;;-0.55;79.13;93079.69;5086487;28;20031;-34
2022/12/14 07:46:06;;;;;;;10.05;6.20;;;;;;;-0.77;80.54;93074.91;5086781;28;20021;-35
2022/12/14 07:50:50;;;;;;;24.17;8.02;;;;;;;-0.64;81.95;93079.16;5039349;27;2045652;-34
2022/12/14 07:53:16;;;;;;;19.40;9.63;;;;;;;-0.57;82.33;93093.00;5087756;28;20420;-34
2022/12/14 07:55:41;;;;;;;9.88;6.63;;;;;;;-0.54;81.74;93102.13;5087854;28;20483;-34
2022/12/14 07:58:07;;;;;;;6.28;5.30;;;;;;;-0.48;80.95;93095.50;5087580;28;20522;-34
2022/12/14 08:00:32;;;;;;;6.68;4.43;;;;;;;-0.52;80.51;93099.69;5087633;28;20031;-34
2022/12/14 08:02:58;;;;;;;10.32;7.93;;;;;;;-0.52;80.33;93107.81;5087606;28;20029;-34
2022/12/14 08:05:23;;;;;;;10.35;7.07;;;;;;;-0.48;80.88;93122.63;5087673;28;20078;-34
2022/12/14 08:07:48;;;;;;;8.60;5.85;;;;;;;-0.65;80.08;93118.34;5087382;28;20024;-34
2022/12/14 08:10:14;;;;;;;12.27;7.47;;;;;;;-0.52;80.64;93124.81;5087320;28;20028;-34
2022/12/14 08:12:39;;;;;;;11.30;6.38;;;;;;;-0.43;79.10;93130.03;5087318;28;20050;-34
2022/12/14 08:15:05;;;;;;;9.95;6.57;;;;;;;-0.44;78.98;93144.09;5087337;28;20032;-34
2022/12/14 08:17:31;;;;;;;10.23;6.35;;;;;;;-0.44;79.25;93144.84;5087427;28;20089;-34
2022/12/14 08:19:56;;;;;;;7.05;5.20;;;;;;;-0.32;79.87;93161.88;5087412;28;20021;-34
2022/12/14 08:22:22;;;;;;;7.88;5.07;;;;;;;-0.27;79.29;93158.47;5087436;28;20092;-34
2022/12/14 08:24:47;;;;;;;6.85;4.65;;;;;;;-0.10;78.66;93164.72;5086820;28;20020;-34
2022/12/14 08:27:13;;;;;;;6.53;4.18;;;;;;;-0.04;77.43;93166.22;5087027;28;20043;-34
2022/12/14 08:29:38;;;;;;;8.48;5.85;;;;;;;0.13;76.74;93160.13;5087124;28;20029;-34
2022/12/14 08:32:04;;;;;;;6.53;4.45;;;;;;;0.08;76.21;93161.59;5087191;28;20023;-34
2022/12/14 08:34:29;;;;;;;5.95;4.40;;;;;;;0.09;74.94;93160.34;5086892;28;20419;-34
2022/12/14 08:36:54;;;;;;;6.82;4.35;;;;;;;0.00;73.84;93155.16;5086852;28;20088;-34
2022/12/14 08:39:20;;;;;;;6.80;4.35;;;;;;;-0.13;75.33;93150.13;5086892;28;20025;-34
2022/12/14 08:41:45;;;;;;;7.88;4.85;;;;;;;-0.18;75.33;93140.03;5086655;28;20027;-34
2022/12/14 08:44:12;;;;;;;5.72;4.70;;;;;;;-0.20;75.99;93139.03;5086707;28;20024;-34
2022/12/14 08:46:38;;;;;;;10.15;6.68;;;;;;;-0.06;76.87;93141.53;5086643;28;20031;-34
2022/12/14 08:49:03;;;;;;;8.05;4.78;;;;;;;0.04;75.40;93136.66;5086625;28;20044;-34
2022/12/14 08:51:29;;;;;;;10.60;5.63;;;;;;;0.09;75.41;93130.47;5086897;28;20408;-34
2022/12/14 08:53:55;;;;;;;13.18;9.10;;;;;;;0.22;75.47;93135.47;5086530;28;20028;-34
2022/12/14 08:56:23;;;;;;;9.00;6.72;;;;;;;0.32;75.49;93139.44;5086500;28;20020;-34
2022/12/14 08:58:49;;;;;;;6.43;5.35;;;;;;;0.27;74.91;93121.91;5086750;28;20020;-34
2022/12/14 09:01:18;;;;;;;10.32;6.93;;;;;;;0.34;75.50;93132.28;5078157;28;20032;-34
2022/12/14 09:06:11;;;;;;;6.28;5.18;;;;;;;0.29;74.89;93121.41;5135359;27;20126;-35
2022/12/14 09:08:37;;;;;;;5.85;4.70;;;;;;;0.38;74.27;93115.75;5149474;27;20039;-34
2022/12/14 09:11:04;;;;;;;8.60;6.07;;;;;;;0.42;75.06;93103.41;5130761;27;20026;-34
2022/12/14 09:13:30;;;;;;;8.77;6.10;;;;;;;0.37;75.88;93093.28;5133214;27;20097;-34
2022/12/14 09:15:57;;;;;;;7.57;6.35;;;;;;;0.43;75.24;93109.59;5128628;28;20086;-34
2022/12/14 09:18:23;;;;;;;11.50;6.95;;;;;;;0.55;75.55;93113.78;5128472;28;20029;-34
2022/12/14 09:20:50;;;;;;;6.90;4.82;;;;;;;0.55;72.04;93108.38;5128295;28;20431;-34
2022/12/14 09:23:16;;;;;;;5.75;4.57;;;;;;;0.43;72.78;93102.19;5128536;28;20027;-34
2022/12/14 09:25:42;;;;;;;8.68;6.57;;;;;;;0.38;73.56;93107.59;5128019;27;20051;-34
2022/12/14 09:28:07;;;;;;;6.43;5.07;;;;;;;0.06;73.43;93090.03;5128411;28;20026;-34
2022/12/14 09:30:32;;;;;;;6.40;4.30;;;;;;;0.04;72.78;93097.91;5128394;28;20406;-34
2022/12/14 09:32:58;;;;;;;6.95;4.80;;;;;;;0.04;73.22;93093.22;5128386;28;20483;-34
2022/12/14 09:35:23;;;;;;;9.05;5.18;;;;;;;0.11;73.46;93089.31;5128106;28;20019;-34
2022/12/14 09:37:49;;;;;;;5.80;4.90;;;;;;;0.14;73.15;93082.88;5128248;28;20027;-34
2022/12/14 09:40:15;;;;;;;5.35;4.72;;;;;;;0.14;73.03;93082.88;5127974;28;20483;-34
2022/12/14 09:43:03;;;;;;;7.43;5.03;;;;;;;0.17;73.36;93081.91;5128180;28;20026;-34
2022/12/14 09:45:31;;;;;;;8.43;5.22;;;;;;;0.23;73.07;93101.66;5109544;28;20034;-34
2022/12/14 09:47:57;;;;;;;6.67;4.57;;;;;;;0.42;73.59;93108.09;5109773;28;20172;-34
2022/12/14 09:50:22;;;;;;;5.55;4.15;;;;;;;0.54;71.77;93117.75;5128019;28;20539;-34
2022/12/14 09:53:00;;;;;;;6.47;4.85;;;;;;;0.37;71.92;93128.59;5109489;28;20046;-34
2022/12/14 09:55:38;;;;;;;5.40;4.80;;;;;;;0.20;72.20;93127.06;5127598;28;20023;-34
2022/12/14 10:00:24;;;;;;;4.82;4.30;;;;;;;0.10;72.62;93114.94;5067638;28;21205;-34
2022/12/14 10:02:58;;;;;;;5.00;4.25;;;;;;;0.14;73.34;93110.03;5067576;28;20120;-34
2022/12/14 10:05:33;;;;;;;5.68;4.60;;;;;;;0.01;73.48;93113.19;5066874;28;20496;-34
2022/12/14 10:08:04;;;;;;;5.78;4.30;;;;;;;0.17;73.05;93117.94;5087629;28;20024;-34
2022/12/14 10:10:54;;;;;;;9.30;5.80;;;;;;;0.11;74.16;93106.31;5087951;28;20028;-34
2022/12/14 10:13:52;;;;;;;5.45;4.57;;;;;;;0.26;74.37;93111.53;5073450;28;20031;-34
2022/12/14 10:16:21;;;;;;;4.22;3.83;;;;;;;0.38;72.82;93105.63;5067343;28;20082;-34
2022/12/14 10:18:54;;;;;;;6.07;4.72;;;;;;;0.54;73.26;93109.63;5065947;28;20563;-34
2022/12/14 10:21:22;;;;;;;38.88;18.83;;;;;;;0.74;73.84;93112.06;5067525;28;20036;-34
2022/12/14 10:23:55;;;;;;;4.82;4.10;;;;;;;0.80;72.05;93115.56;5065932;28;20031;-34
2022/12/14 10:26:23;;;;;;;5.88;4.57;;;;;;;0.83;72.72;93111.84;5067120;28;20029;-34
2022/12/14 10:28:55;;;;;;;6.25;4.70;;;;;;;0.98;71.44;93098.75;5065919;28;20048;-34
2022/12/14 10:31:43;;;;;;;7.18;5.40;;;;;;;1.11;72.64;93098.97;5066154;28;20412;-34
2022/12/14 10:34:16;;;;;;;6.80;4.57;;;;;;;1.18;70.11;93098.47;5065818;28;20028;-34
2022/12/14 10:36:51;;;;;;;5.90;4.65;;;;;;;1.21;71.45;93100.19;5067346;28;20162;-34
2022/12/14 10:39:25;;;;;;;15.82;4.82;;;;;;;1.33;71.02;93103.63;5067044;28;20043;-34
2022/12/14 10:42:18;;;;;;;5.32;4.70;;;;;;;1.06;69.87;93091.56;5067086;28;20040;-34
2022/12/14 10:45:01;;;;;;;13.43;5.30;;;;;;;1.00;70.60;93060.94;5066729;28;20708;-34
2022/12/14 10:47:38;;;;;;;6.60;4.72;;;;;;;1.00;70.58;93052.78;5065423;28;20102;-34
2022/12/14 10:50:21;;;;;;;6.25;4.18;;;;;;;0.90;70.05;93050.81;5065424;28;20028;-34
2022/12/14 10:52:50;;;;;;;6.22;4.20;;;;;;;0.83;70.88;93038.47;5065697;28;20103;-34
2022/12/14 10:55:38;;;;;;;5.10;4.30;;;;;;;0.75;69.80;93051.09;5048682;28;20432;-34
2022/12/14 10:58:04;;;;;;;5.57;4.63;;;;;;;0.75;70.92;93048.38;5065054;28;20025;-34
2022/12/14 11:00:29;;;;;;;5.00;3.97;;;;;;;0.67;70.14;93034.53;5066405;28;20437;-34
2022/12/14 11:02:56;;;;;;;5.20;4.15;;;;;;;0.51;70.67;93040.72;5066280;28;20032;-34
2022/12/14 11:05:34;;;;;;;4.88;4.10;;;;;;;0.37;72.25;93028.09;5064995;28;20077;-34
2022/12/14 11:08:00;;;;;;;6.30;5.05;;;;;;;0.58;73.24;93023.19;5066513;28;20082;-34
2022/12/14 11:10:30;;;;;;;6.03;4.75;;;;;;;0.72;71.97;93030.31;5060138;28;20033;-34
2022/12/14 11:13:04;;;;;;;4.68;4.20;;;;;;;0.88;71.54;93032.28;5052883;28;20486;-34
2022/12/14 11:15:39;;;;;;;6.03;4.50;;;;;;;1.03;69.83;93037.44;5052885;28;20492;-34
2022/12/14 11:18:10;;;;;;;6.18;5.00;;;;;;;1.27;70.20;93030.22;5052751;28;20029;-34
2022/12/14 11:20:35;;;;;;;5.35;4.03;;;;;;;1.45;68.68;93021.50;5052798;28;20032;-34
2022/12/14 11:23:25;;;;;;;6.15;4.80;;;;;;;1.65;68.09;93016.97;5052731;28;20024;-34
2022/12/14 11:25:57;;;;;;;6.03;4.20;;;;;;;1.78;66.32;93019.88;5052403;28;20024;-34
2022/12/14 11:28:34;;;;;;;7.72;4.05;;;;;;;1.83;68.44;93032.72;5051836;28;20024;-34
2022/12/14 11:31:01;;;;;;;5.30;3.65;;;;;;;2.27;64.45;93027.75;5051434;28;20032;-34
2022/12/14 11:33:34;;;;;;;6.13;4.32;;;;;;;2.37;65.02;93020.03;5051243;28;20463;-34
2022/12/14 11:36:00;;;;;;;7.22;4.65;;;;;;;2.30;64.39;93029.47;5051647;28;20110;-34
2022/12/14 11:38:27;;;;;;;5.78;4.45;;;;;;;2.17;64.63;93001.34;5051251;28;20029;-34
2022/12/14 11:40:52;;;;;;;4.10;3.70;;;;;;;2.20;64.22;93022.88;5051257;28;20086;-34
2022/12/14 11:43:25;;;;;;;3.90;2.97;;;;;;;2.08;63.91;93034.34;5052392;28;20033;-34
2022/12/14 11:45:53;;;;;;;4.22;3.83;;;;;;;2.00;63.76;93030.66;5052660;28;20394;-34
2022/12/14 11:48:21;;;;;;;4.20;2.78;;;;;;;1.81;63.88;93029.78;5052392;28;20036;-34
2022/12/14 11:50:48;;;;;;;5.05;3.60;;;;;;;1.56;65.00;93031.59;5052242;28;20025;-34
2022/12/14 11:53:16;;;;;;;7.40;4.65;;;;;;;1.48;66.96;93036.09;5051269;28;20079;-34
2022/12/14 11:55:53;;;;;;;5.88;3.80;;;;;;;1.57;67.24;93024.19;5052489;28;20029;-34
2022/12/14 11:58:24;;;;;;;11.95;6.90;;;;;;;1.72;67.24;93027.34;5052068;28;20124;-34
2022/12/14 12:01:04;;;;;;;6.40;5.30;;;;;;;1.85;67.89;93011.19;5050953;28;20035;-34
2022/12/14 12:03:35;;;;;;;7.82;4.20;;;;;;;1.98;65.32;93011.38;5052261;28;20508;-34
2022/12/14 12:06:06;;;;;;;6.45;4.30;;;;;;;1.99;66.41;93010.84;5051076;28;20029;-35
2022/12/14 12:08:35;;;;;;;5.88;4.35;;;;;;;2.00;66.07;93008.88;5050691;28;20565;-34
2022/12/14 12:11:04;;;;;;;8.18;5.53;;;;;;;1.96;67.48;93000.97;5052134;28;20489;-34
2022/12/14 12:13:34;;;;;;;8.00;5.72;;;;;;;1.78;67.04;92998.09;5052101;28;20028;-34
2022/12/14 12:16:21;;;;;;;6.63;4.88;;;;;;;1.71;66.94;92995.94;5050544;28;20082;-34